Hovedside
METAR-TAF:

METAR-TAF

Lufthavner :

Ängelholm-Helsingborg lufthavn

Helsingborg, Sverige

breddegrad: 56-17-46N, lengdegrad: 012-50-50E, høyde over havet: 21 m

Gjeldene værobservasjon

Denne rapporten ble laget for 5 minutter siden, klokken 19:50 UTC
Vind 7 kt fra Øst-sørøst
Temperatur 19°C
Luftfuktighet 78%
Trykk 1014 hPa
Sikt 10 km eller mer
ingen skyer under 1500 m og ingen bygeskyer

METAR: ESTA 161950Z 12007KT CAVOK 19/15 Q1014

Tid: 21:55 (19:55 UTC)

Varsel

Denne rapporten ble laget for 3 timer og 1 minutter siden, klokken 16:54 UTC
Varsel gyldig fra 16. klokken 18 UTC til 16. klokken 22 UTC
Vind 15 kt fra Sør
Sikt 10 km eller mer
Spredte skyer i en høyde av 4000 ft
Blir
fra 16. klokken 18 UTC til 16. klokken 20 UTC
Vind 5 kt fra Sør-sørøst

TAF: ESTA 161654Z 1618/1622 17015KT 9999 SCT040 BECMG 1618/1620 16005KT

Værobservasjoner og værvarsel for over 4000 flyplasser (METAR- og TAF-rapporter).

Tilgjengelige stasjoner er representert av de røde og gule prikkene på kartet.

Hold musepekeren over prikken for å se navnet på stasjonen.

Klikk så for å se værobservasjoner og -varsler.

For å forandre kartet kan du klikke på den grønne knappen med svart kryss for å zoome inn, på den grønne knappen med strek for å zoome ut, eller på de grønne pilene for å se tilstøtende kart.


METAR-TAF: